sensor_id;sensor_type;location;lat;lon;timestamp;temperature;humidity
2721;DHT22;1368;49.484;11.112;2023-03-04T00:02:25;0.70;99.90
2721;DHT22;1368;49.484;11.112;2023-03-04T00:04:50;0.70;99.90
2721;DHT22;1368;49.484;11.112;2023-03-04T00:07:16;0.70;99.90
2721;DHT22;1368;49.484;11.112;2023-03-04T00:09:44;0.70;99.90
2721;DHT22;1368;49.484;11.112;2023-03-04T00:12:10;0.60;99.90
2721;DHT22;1368;49.484;11.112;2023-03-04T00:14:36;0.50;99.90
2721;DHT22;1368;49.484;11.112;2023-03-04T00:17:01;0.40;99.90
2721;DHT22;1368;49.484;11.112;2023-03-04T00:19:29;0.40;99.90
2721;DHT22;1368;49.484;11.112;2023-03-04T00:21:54;0.50;99.90
2721;DHT22;1368;49.484;11.112;2023-03-04T00:24:20;0.60;99.90
2721;DHT22;1368;49.484;11.112;2023-03-04T00:26:46;0.60;99.90
2721;DHT22;1368;49.484;11.112;2023-03-04T00:29:11;0.60;99.90
2721;DHT22;1368;49.484;11.112;2023-03-04T00:31:37;0.70;99.90
2721;DHT22;1368;49.484;11.112;2023-03-04T00:34:02;0.80;99.90
2721;DHT22;1368;49.484;11.112;2023-03-04T00:36:28;0.80;99.90
2721;DHT22;1368;49.484;11.112;2023-03-04T00:38:53;0.90;99.90
2721;DHT22;1368;49.484;11.112;2023-03-04T00:41:19;0.90;99.90
2721;DHT22;1368;49.484;11.112;2023-03-04T00:43:45;0.90;99.90
2721;DHT22;1368;49.484;11.112;2023-03-04T00:46:10;0.80;99.90
2721;DHT22;1368;49.484;11.112;2023-03-04T00:48:36;0.80;99.90
2721;DHT22;1368;49.484;11.112;2023-03-04T00:51:03;0.70;99.90
2721;DHT22;1368;49.484;11.112;2023-03-04T00:53:28;0.70;99.90
2721;DHT22;1368;49.484;11.112;2023-03-04T00:55:54;0.60;99.90
2721;DHT22;1368;49.484;11.112;2023-03-04T00:58:20;0.60;99.90
2721;DHT22;1368;49.484;11.112;2023-03-04T01:00:45;0.20;99.90
2721;DHT22;1368;49.484;11.112;2023-03-04T01:03:11;0.20;99.90
2721;DHT22;1368;49.484;11.112;2023-03-04T01:05:36;0.10;99.90
2721;DHT22;1368;49.484;11.112;2023-03-04T01:08:02;0.00;99.90
2721;DHT22;1368;49.484;11.112;2023-03-04T01:10:28;-0.10;99.90
2721;DHT22;1368;49.484;11.112;2023-03-04T01:12:54;-0.10;99.90
2721;DHT22;1368;49.484;11.112;2023-03-04T01:15:19;-0.20;99.90
2721;DHT22;1368;49.484;11.112;2023-03-04T01:17:45;-0.20;99.90
2721;DHT22;1368;49.484;11.112;2023-03-04T01:20:11;-0.10;99.90
2721;DHT22;1368;49.484;11.112;2023-03-04T01:22:37;-0.20;99.90
2721;DHT22;1368;49.484;11.112;2023-03-04T01:25:03;-0.40;99.90
2721;DHT22;1368;49.484;11.112;2023-03-04T01:27:29;-0.50;99.90
2721;DHT22;1368;49.484;11.112;2023-03-04T01:29:54;-0.50;99.90
2721;DHT22;1368;49.484;11.112;2023-03-04T01:32:20;-0.30;99.90
2721;DHT22;1368;49.484;11.112;2023-03-04T01:34:45;-0.30;99.90
2721;DHT22;1368;49.484;11.112;2023-03-04T01:37:11;-0.30;99.90
2721;DHT22;1368;49.484;11.112;2023-03-04T01:39:38;-0.50;99.90
2721;DHT22;1368;49.484;11.112;2023-03-04T01:42:04;-0.40;99.90
2721;DHT22;1368;49.484;11.112;2023-03-04T01:44:30;-0.20;99.90
2721;DHT22;1368;49.484;11.112;2023-03-04T01:46:55;-0.30;99.90
2721;DHT22;1368;49.484;11.112;2023-03-04T01:49:21;-0.10;99.90
2721;DHT22;1368;49.484;11.112;2023-03-04T01:51:53;0.00;99.90
2721;DHT22;1368;49.484;11.112;2023-03-04T01:54:21;0.00;99.90
2721;DHT22;1368;49.484;11.112;2023-03-04T01:56:48;0.00;99.90
2721;DHT22;1368;49.484;11.112;2023-03-04T01:59:23;-0.10;99.90
2721;DHT22;1368;49.484;11.112;2023-03-04T02:01:54;-0.10;99.90
2721;DHT22;1368;49.484;11.112;2023-03-04T02:04:29;0.00;99.90
2721;DHT22;1368;49.484;11.112;2023-03-04T02:06:56;0.00;99.90
2721;DHT22;1368;49.484;11.112;2023-03-04T02:09:22;0.00;99.90
2721;DHT22;1368;49.484;11.112;2023-03-04T02:11:49;0.10;99.90
2721;DHT22;1368;49.484;11.112;2023-03-04T02:14:16;-0.10;99.90
2721;DHT22;1368;49.484;11.112;2023-03-04T02:16:42;-0.20;99.90
2721;DHT22;1368;49.484;11.112;2023-03-04T02:19:32;-0.30;99.90
2721;DHT22;1368;49.484;11.112;2023-03-04T02:22:01;-0.40;99.90
2721;DHT22;1368;49.484;11.112;2023-03-04T02:27:01;-0.30;99.90
2721;DHT22;1368;49.484;11.112;2023-03-04T02:29:27;-0.20;99.90
2721;DHT22;1368;49.484;11.112;2023-03-04T02:31:53;-0.20;99.90
2721;DHT22;1368;49.484;11.112;2023-03-04T02:34:28;-0.30;99.90
2721;DHT22;1368;49.484;11.112;2023-03-04T02:36:55;-0.20;99.90
2721;DHT22;1368;49.484;11.112;2023-03-04T02:41:53;-0.40;99.90
2721;DHT22;1368;49.484;11.112;2023-03-04T02:44:27;-0.40;99.90
2721;DHT22;1368;49.484;11.112;2023-03-04T02:46:54;-0.40;99.90
2721;DHT22;1368;49.484;11.112;2023-03-04T02:49:21;-0.40;99.90
2721;DHT22;1368;49.484;11.112;2023-03-04T02:51:51;-0.40;99.90
2721;DHT22;1368;49.484;11.112;2023-03-04T02:54:19;-0.30;99.90
2721;DHT22;1368;49.484;11.112;2023-03-04T02:56:48;-0.20;99.90
2721;DHT22;1368;49.484;11.112;2023-03-04T02:59:14;-0.20;99.90
2721;DHT22;1368;49.484;11.112;2023-03-04T03:01:40;-0.20;99.90
2721;DHT22;1368;49.484;11.112;2023-03-04T03:04:05;-0.30;99.90
2721;DHT22;1368;49.484;11.112;2023-03-04T03:06:31;-0.50;99.90
2721;DHT22;1368;49.484;11.112;2023-03-04T03:08:56;-0.80;99.90
2721;DHT22;1368;49.484;11.112;2023-03-04T03:11:22;-0.90;99.90
2721;DHT22;1368;49.484;11.112;2023-03-04T03:13:47;-1.10;99.90
2721;DHT22;1368;49.484;11.112;2023-03-04T03:16:13;-1.00;99.90
2721;DHT22;1368;49.484;11.112;2023-03-04T03:18:38;-1.00;99.90
2721;DHT22;1368;49.484;11.112;2023-03-04T03:21:05;-1.00;99.90
2721;DHT22;1368;49.484;11.112;2023-03-04T03:23:31;-1.10;99.90
2721;DHT22;1368;49.484;11.112;2023-03-04T03:25:57;-1.20;99.90
2721;DHT22;1368;49.484;11.112;2023-03-04T03:28:22;-1.30;99.90
2721;DHT22;1368;49.484;11.112;2023-03-04T03:30:48;-0.90;99.90
2721;DHT22;1368;49.484;11.112;2023-03-04T03:33:13;-1.40;99.90
2721;DHT22;1368;49.484;11.112;2023-03-04T03:35:39;-1.60;99.90
2721;DHT22;1368;49.484;11.112;2023-03-04T03:38:04;-1.60;99.90
2721;DHT22;1368;49.484;11.112;2023-03-04T03:40:30;-1.40;99.90
2721;DHT22;1368;49.484;11.112;2023-03-04T03:42:55;-1.10;99.90
2721;DHT22;1368;49.484;11.112;2023-03-04T03:45:21;-1.10;99.90
2721;DHT22;1368;49.484;11.112;2023-03-04T03:47:46;-1.10;99.90
2721;DHT22;1368;49.484;11.112;2023-03-04T03:50:12;-1.10;99.90
2721;DHT22;1368;49.484;11.112;2023-03-04T03:52:38;-1.10;99.90
2721;DHT22;1368;49.484;11.112;2023-03-04T03:55:04;-1.20;99.90
2721;DHT22;1368;49.484;11.112;2023-03-04T03:57:29;-1.30;99.90
2721;DHT22;1368;49.484;11.112;2023-03-04T03:59:55;-1.20;99.90
2721;DHT22;1368;49.484;11.112;2023-03-04T04:02:21;-1.00;99.90
2721;DHT22;1368;49.484;11.112;2023-03-04T04:04:47;-0.90;99.90
2721;DHT22;1368;49.484;11.112;2023-03-04T04:07:12;-0.90;99.90
2721;DHT22;1368;49.484;11.112;2023-03-04T04:09:38;-0.80;99.90
2721;DHT22;1368;49.484;11.112;2023-03-04T04:12:05;-0.60;99.90
2721;DHT22;1368;49.484;11.112;2023-03-04T04:14:32;-0.40;99.90
2721;DHT22;1368;49.484;11.112;2023-03-04T04:16:57;-0.50;99.90
2721;DHT22;1368;49.484;11.112;2023-03-04T04:19:23;-0.80;99.90
2721;DHT22;1368;49.484;11.112;2023-03-04T04:21:49;-0.80;99.90
2721;DHT22;1368;49.484;11.112;2023-03-04T04:24:14;-0.80;99.90
2721;DHT22;1368;49.484;11.112;2023-03-04T04:26:41;-0.80;99.90
2721;DHT22;1368;49.484;11.112;2023-03-04T04:29:07;-1.00;99.90
2721;DHT22;1368;49.484;11.112;2023-03-04T04:31:33;-0.70;99.90
2721;DHT22;1368;49.484;11.112;2023-03-04T04:33:59;-0.50;99.90
2721;DHT22;1368;49.484;11.112;2023-03-04T04:36:24;-0.40;99.90
2721;DHT22;1368;49.484;11.112;2023-03-04T04:38:51;-0.40;99.90
2721;DHT22;1368;49.484;11.112;2023-03-04T04:41:26;-0.50;99.90
2721;DHT22;1368;49.484;11.112;2023-03-04T04:43:52;-0.70;99.90
2721;DHT22;1368;49.484;11.112;2023-03-04T04:46:19;-0.40;99.90
2721;DHT22;1368;49.484;11.112;2023-03-04T04:48:45;-0.10;99.90
2721;DHT22;1368;49.484;11.112;2023-03-04T04:51:11;0.10;99.90
2721;DHT22;1368;49.484;11.112;2023-03-04T04:53:36;0.20;99.90
2721;DHT22;1368;49.484;11.112;2023-03-04T04:56:10;0.40;99.90
2721;DHT22;1368;49.484;11.112;2023-03-04T04:58:36;0.60;99.90
2721;DHT22;1368;49.484;11.112;2023-03-04T05:01:02;0.60;99.90
2721;DHT22;1368;49.484;11.112;2023-03-04T05:03:29;0.40;99.90
2721;DHT22;1368;49.484;11.112;2023-03-04T05:05:54;0.30;99.90
2721;DHT22;1368;49.484;11.112;2023-03-04T05:08:20;0.30;99.90
2721;DHT22;1368;49.484;11.112;2023-03-04T05:10:46;0.20;99.90
2721;DHT22;1368;49.484;11.112;2023-03-04T05:13:12;0.30;99.90
2721;DHT22;1368;49.484;11.112;2023-03-04T05:15:37;0.50;99.90
2721;DHT22;1368;49.484;11.112;2023-03-04T05:18:03;0.50;99.90
2721;DHT22;1368;49.484;11.112;2023-03-04T05:20:29;0.60;99.90
2721;DHT22;1368;49.484;11.112;2023-03-04T05:22:54;0.60;99.90
2721;DHT22;1368;49.484;11.112;2023-03-04T05:25:20;0.60;99.90
2721;DHT22;1368;49.484;11.112;2023-03-04T05:27:46;0.50;99.90
2721;DHT22;1368;49.484;11.112;2023-03-04T05:30:11;0.80;99.90
2721;DHT22;1368;49.484;11.112;2023-03-04T05:32:37;1.00;99.90
2721;DHT22;1368;49.484;11.112;2023-03-04T05:35:03;0.90;99.90
2721;DHT22;1368;49.484;11.112;2023-03-04T05:37:28;1.00;99.90
2721;DHT22;1368;49.484;11.112;2023-03-04T05:39:54;1.10;99.90
2721;DHT22;1368;49.484;11.112;2023-03-04T05:42:20;0.80;99.90
2721;DHT22;1368;49.484;11.112;2023-03-04T05:44:45;0.40;99.90
2721;DHT22;1368;49.484;11.112;2023-03-04T05:47:11;0.40;99.90
2721;DHT22;1368;49.484;11.112;2023-03-04T05:49:36;0.00;99.90
2721;DHT22;1368;49.484;11.112;2023-03-04T05:52:02;0.00;99.90
2721;DHT22;1368;49.484;11.112;2023-03-04T05:54:27;0.10;99.90
2721;DHT22;1368;49.484;11.112;2023-03-04T05:56:53;0.00;99.90
2721;DHT22;1368;49.484;11.112;2023-03-04T05:59:19;0.00;99.90
2721;DHT22;1368;49.484;11.112;2023-03-04T06:01:46;0.10;99.90
2721;DHT22;1368;49.484;11.112;2023-03-04T06:04:11;0.20;99.90
2721;DHT22;1368;49.484;11.112;2023-03-04T06:06:37;0.10;99.90
2721;DHT22;1368;49.484;11.112;2023-03-04T06:09:03;0.20;99.90
2721;DHT22;1368;49.484;11.112;2023-03-04T06:11:29;0.40;99.90
2721;DHT22;1368;49.484;11.112;2023-03-04T06:13:54;0.50;99.90
2721;DHT22;1368;49.484;11.112;2023-03-04T06:16:20;0.60;99.90
2721;DHT22;1368;49.484;11.112;2023-03-04T06:18:45;0.80;99.90
2721;DHT22;1368;49.484;11.112;2023-03-04T06:21:11;0.80;99.90
2721;DHT22;1368;49.484;11.112;2023-03-04T06:23:37;0.80;99.90
2721;DHT22;1368;49.484;11.112;2023-03-04T06:26:02;0.80;99.90
2721;DHT22;1368;49.484;11.112;2023-03-04T06:28:28;1.00;99.90
2721;DHT22;1368;49.484;11.112;2023-03-04T06:30:55;0.80;99.90
2721;DHT22;1368;49.484;11.112;2023-03-04T06:33:21;0.90;99.90
2721;DHT22;1368;49.484;11.112;2023-03-04T06:35:47;1.00;99.90
2721;DHT22;1368;49.484;11.112;2023-03-04T06:38:13;1.20;99.90
2721;DHT22;1368;49.484;11.112;2023-03-04T06:40:38;1.20;99.90
2721;DHT22;1368;49.484;11.112;2023-03-04T06:43:04;1.20;99.90
2721;DHT22;1368;49.484;11.112;2023-03-04T06:45:30;1.10;99.90
2721;DHT22;1368;49.484;11.112;2023-03-04T06:47:56;1.10;99.90
2721;DHT22;1368;49.484;11.112;2023-03-04T06:50:21;1.10;99.90
2721;DHT22;1368;49.484;11.112;2023-03-04T06:52:47;1.20;99.90
2721;DHT22;1368;49.484;11.112;2023-03-04T06:55:13;1.10;99.90
2721;DHT22;1368;49.484;11.112;2023-03-04T06:57:39;1.40;99.90
2721;DHT22;1368;49.484;11.112;2023-03-04T07:00:05;1.50;99.90
2721;DHT22;1368;49.484;11.112;2023-03-04T07:02:31;1.60;99.90
2721;DHT22;1368;49.484;11.112;2023-03-04T07:04:57;1.70;99.90
2721;DHT22;1368;49.484;11.112;2023-03-04T07:07:22;1.50;99.90
2721;DHT22;1368;49.484;11.112;2023-03-04T07:09:50;1.50;99.90
2721;DHT22;1368;49.484;11.112;2023-03-04T07:12:16;1.50;99.90
2721;DHT22;1368;49.484;11.112;2023-03-04T07:14:41;1.60;99.90
2721;DHT22;1368;49.484;11.112;2023-03-04T07:17:07;1.50;99.90
2721;DHT22;1368;49.484;11.112;2023-03-04T07:19:32;1.60;99.90
2721;DHT22;1368;49.484;11.112;2023-03-04T07:21:58;1.70;99.90
2721;DHT22;1368;49.484;11.112;2023-03-04T07:24:23;1.80;99.90
2721;DHT22;1368;49.484;11.112;2023-03-04T07:26:49;1.80;99.90
2721;DHT22;1368;49.484;11.112;2023-03-04T07:29:15;2.00;99.90
2721;DHT22;1368;49.484;11.112;2023-03-04T07:31:40;2.20;99.90
2721;DHT22;1368;49.484;11.112;2023-03-04T07:34:08;2.30;99.90
2721;DHT22;1368;49.484;11.112;2023-03-04T07:36:35;2.50;99.90
2721;DHT22;1368;49.484;11.112;2023-03-04T07:39:01;2.70;99.90
2721;DHT22;1368;49.484;11.112;2023-03-04T07:41:27;2.70;99.90
2721;DHT22;1368;49.484;11.112;2023-03-04T07:43:56;2.60;99.90
2721;DHT22;1368;49.484;11.112;2023-03-04T07:46:22;2.40;99.90
2721;DHT22;1368;49.484;11.112;2023-03-04T07:48:48;2.50;99.90
2721;DHT22;1368;49.484;11.112;2023-03-04T07:51:22;2.50;99.90
2721;DHT22;1368;49.484;11.112;2023-03-04T07:53:49;2.60;99.90
2721;DHT22;1368;49.484;11.112;2023-03-04T07:56:17;2.60;99.90
2721;DHT22;1368;49.484;11.112;2023-03-04T07:58:43;2.50;99.90
2721;DHT22;1368;49.484;11.112;2023-03-04T08:01:33;2.40;99.90
2721;DHT22;1368;49.484;11.112;2023-03-04T08:04:00;2.40;99.90
2721;DHT22;1368;49.484;11.112;2023-03-04T08:06:26;2.20;99.90
2721;DHT22;1368;49.484;11.112;2023-03-04T08:08:57;2.40;99.90
2721;DHT22;1368;49.484;11.112;2023-03-04T08:11:24;1.90;99.90
2721;DHT22;1368;49.484;11.112;2023-03-04T08:13:50;2.00;99.90
2721;DHT22;1368;49.484;11.112;2023-03-04T08:16:18;2.20;99.90
2721;DHT22;1368;49.484;11.112;2023-03-04T08:18:46;2.70;99.90
2721;DHT22;1368;49.484;11.112;2023-03-04T08:21:14;3.10;99.90
2721;DHT22;1368;49.484;11.112;2023-03-04T08:23:40;3.10;99.90
2721;DHT22;1368;49.484;11.112;2023-03-04T08:26:11;3.20;99.90
2721;DHT22;1368;49.484;11.112;2023-03-04T08:28:37;3.10;99.90
2721;DHT22;1368;49.484;11.112;2023-03-04T08:31:03;2.90;99.90
2721;DHT22;1368;49.484;11.112;2023-03-04T08:33:29;2.70;99.90
2721;DHT22;1368;49.484;11.112;2023-03-04T08:35:55;2.80;99.90
2721;DHT22;1368;49.484;11.112;2023-03-04T08:38:21;3.20;99.90
2721;DHT22;1368;49.484;11.112;2023-03-04T08:40:54;4.30;99.90
2721;DHT22;1368;49.484;11.112;2023-03-04T08:43:20;3.30;99.90
2721;DHT22;1368;49.484;11.112;2023-03-04T08:45:46;3.30;99.90
2721;DHT22;1368;49.484;11.112;2023-03-04T08:48:11;3.40;99.90
2721;DHT22;1368;49.484;11.112;2023-03-04T08:50:37;3.30;99.90
2721;DHT22;1368;49.484;11.112;2023-03-04T08:53:03;3.40;99.90
2721;DHT22;1368;49.484;11.112;2023-03-04T08:55:28;3.20;99.90
2721;DHT22;1368;49.484;11.112;2023-03-04T08:57:54;3.10;99.90
2721;DHT22;1368;49.484;11.112;2023-03-04T09:00:19;3.30;99.90
2721;DHT22;1368;49.484;11.112;2023-03-04T09:02:46;3.40;99.90
2721;DHT22;1368;49.484;11.112;2023-03-04T09:05:12;3.40;99.90
2721;DHT22;1368;49.484;11.112;2023-03-04T09:07:37;3.30;99.90
2721;DHT22;1368;49.484;11.112;2023-03-04T09:10:03;3.10;99.90
2721;DHT22;1368;49.484;11.112;2023-03-04T09:12:29;3.00;99.90
2721;DHT22;1368;49.484;11.112;2023-03-04T09:14:54;3.10;99.90
2721;DHT22;1368;49.484;11.112;2023-03-04T09:17:20;2.90;99.90
2721;DHT22;1368;49.484;11.112;2023-03-04T09:19:46;2.80;99.90
2721;DHT22;1368;49.484;11.112;2023-03-04T09:22:11;2.70;99.90
2721;DHT22;1368;49.484;11.112;2023-03-04T09:24:37;2.60;99.90
2721;DHT22;1368;49.484;11.112;2023-03-04T09:27:02;2.60;99.90
2721;DHT22;1368;49.484;11.112;2023-03-04T09:29:28;3.10;99.90
2721;DHT22;1368;49.484;11.112;2023-03-04T09:31:53;3.40;99.90
2721;DHT22;1368;49.484;11.112;2023-03-04T09:34:19;3.60;99.90
2721;DHT22;1368;49.484;11.112;2023-03-04T09:36:45;3.80;99.90
2721;DHT22;1368;49.484;11.112;2023-03-04T09:39:10;3.90;99.90
2721;DHT22;1368;49.484;11.112;2023-03-04T09:41:49;4.00;99.90
2721;DHT22;1368;49.484;11.112;2023-03-04T09:44:32;3.60;99.90
2721;DHT22;1368;49.484;11.112;2023-03-04T09:47:01;3.50;99.90
2721;DHT22;1368;49.484;11.112;2023-03-04T09:49:27;3.40;99.90
2721;DHT22;1368;49.484;11.112;2023-03-04T09:55:25;3.70;99.90
2721;DHT22;1368;49.484;11.112;2023-03-04T10:00:46;4.60;99.90
2721;DHT22;1368;49.484;11.112;2023-03-04T10:03:18;4.60;99.90
2721;DHT22;1368;49.484;11.112;2023-03-04T10:05:48;4.60;99.90
2721;DHT22;1368;49.484;11.112;2023-03-04T10:11:04;4.90;99.90
2721;DHT22;1368;49.484;11.112;2023-03-04T10:13:38;5.20;99.90
2721;DHT22;1368;49.484;11.112;2023-03-04T10:16:08;5.20;99.90
2721;DHT22;1368;49.484;11.112;2023-03-04T10:18:44;4.80;99.90
2721;DHT22;1368;49.484;11.112;2023-03-04T10:23:50;5.10;99.90
2721;DHT22;1368;49.484;11.112;2023-03-04T10:26:19;4.90;99.90
2721;DHT22;1368;49.484;11.112;2023-03-04T10:28:46;4.90;99.90
2721;DHT22;1368;49.484;11.112;2023-03-04T10:31:21;4.90;99.90
2721;DHT22;1368;49.484;11.112;2023-03-04T10:33:53;4.80;99.90
2721;DHT22;1368;49.484;11.112;2023-03-04T10:39:00;5.20;99.90
2721;DHT22;1368;49.484;11.112;2023-03-04T10:41:28;5.30;99.90
2721;DHT22;1368;49.484;11.112;2023-03-04T10:46:38;5.60;99.90
2721;DHT22;1368;49.484;11.112;2023-03-04T10:49:04;5.60;99.90
2721;DHT22;1368;49.484;11.112;2023-03-04T10:51:30;5.80;99.90
2721;DHT22;1368;49.484;11.112;2023-03-04T10:54:16;5.50;99.90
2721;DHT22;1368;49.484;11.112;2023-03-04T10:56:54;5.40;99.90
2721;DHT22;1368;49.484;11.112;2023-03-04T10:59:48;5.10;99.90
2721;DHT22;1368;49.484;11.112;2023-03-04T11:02:24;5.00;99.90
2721;DHT22;1368;49.484;11.112;2023-03-04T11:07:31;5.20;99.90
2721;DHT22;1368;49.484;11.112;2023-03-04T11:10:07;5.50;99.90
2721;DHT22;1368;49.484;11.112;2023-03-04T11:12:34;5.40;99.90
2721;DHT22;1368;49.484;11.112;2023-03-04T11:15:00;5.40;99.90
2721;DHT22;1368;49.484;11.112;2023-03-04T11:17:28;5.30;99.90
2721;DHT22;1368;49.484;11.112;2023-03-04T11:20:08;5.20;99.90
2721;DHT22;1368;49.484;11.112;2023-03-04T11:22:38;5.30;99.90
2721;DHT22;1368;49.484;11.112;2023-03-04T11:25:54;5.10;99.90
2721;DHT22;1368;49.484;11.112;2023-03-04T11:28:28;4.80;99.90
2721;DHT22;1368;49.484;11.112;2023-03-04T11:31:02;4.80;99.90
2721;DHT22;1368;49.484;11.112;2023-03-04T11:33:50;4.60;99.90
2721;DHT22;1368;49.484;11.112;2023-03-04T11:36:32;4.60;99.90
2721;DHT22;1368;49.484;11.112;2023-03-04T11:38:59;4.80;99.90
2721;DHT22;1368;49.484;11.112;2023-03-04T11:41:38;4.90;99.90
2721;DHT22;1368;49.484;11.112;2023-03-04T11:44:05;5.20;99.90
2721;DHT22;1368;49.484;11.112;2023-03-04T11:46:50;5.20;99.90
2721;DHT22;1368;49.484;11.112;2023-03-04T11:52:17;4.60;99.90
2721;DHT22;1368;49.484;11.112;2023-03-04T11:55:18;4.70;99.90
2721;DHT22;1368;49.484;11.112;2023-03-04T11:57:58;4.80;99.90
2721;DHT22;1368;49.484;11.112;2023-03-04T12:00:33;4.90;99.90
2721;DHT22;1368;49.484;11.112;2023-03-04T12:06:01;5.00;99.90
2721;DHT22;1368;49.484;11.112;2023-03-04T12:16:46;4.60;99.90
2721;DHT22;1368;49.484;11.112;2023-03-04T12:19:26;4.70;99.90
2721;DHT22;1368;49.484;11.112;2023-03-04T12:22:06;4.90;99.90
2721;DHT22;1368;49.484;11.112;2023-03-04T12:30:51;5.10;99.90
2721;DHT22;1368;49.484;11.112;2023-03-04T12:44:26;4.50;99.90
2721;DHT22;1368;49.484;11.112;2023-03-04T12:55:01;5.00;99.90
2721;DHT22;1368;49.484;11.112;2023-03-04T12:57:28;4.80;99.90
2721;DHT22;1368;49.484;11.112;2023-03-04T13:16:41;5.00;99.90
2721;DHT22;1368;49.484;11.112;2023-03-04T13:19:46;5.10;99.90
2721;DHT22;1368;49.484;11.112;2023-03-04T13:43:44;5.60;99.90
2721;DHT22;1368;49.484;11.112;2023-03-04T13:51:37;5.70;99.90
2721;DHT22;1368;49.484;11.112;2023-03-04T13:56:47;5.50;99.90
2721;DHT22;1368;49.484;11.112;2023-03-04T13:59:40;5.50;99.90
2721;DHT22;1368;49.484;11.112;2023-03-04T14:04:43;5.60;99.90
2721;DHT22;1368;49.484;11.112;2023-03-04T14:07:28;5.90;99.90
2721;DHT22;1368;49.484;11.112;2023-03-04T14:10:01;5.60;99.90
2721;DHT22;1368;49.484;11.112;2023-03-04T14:12:31;5.60;99.90
2721;DHT22;1368;49.484;11.112;2023-03-04T14:15:00;5.40;99.90
2721;DHT22;1368;49.484;11.112;2023-03-04T14:17:30;5.70;99.90
2721;DHT22;1368;49.484;11.112;2023-03-04T14:19:56;5.70;99.90
2721;DHT22;1368;49.484;11.112;2023-03-04T14:22:29;5.60;99.90
2721;DHT22;1368;49.484;11.112;2023-03-04T14:27:25;5.30;99.90
2721;DHT22;1368;49.484;11.112;2023-03-04T14:30:02;5.50;99.90
2721;DHT22;1368;49.484;11.112;2023-03-04T14:32:28;5.90;99.90
2721;DHT22;1368;49.484;11.112;2023-03-04T14:35:02;6.00;99.90
2721;DHT22;1368;49.484;11.112;2023-03-04T14:37:52;6.50;99.90
2721;DHT22;1368;49.484;11.112;2023-03-04T14:40:26;6.40;99.90
2721;DHT22;1368;49.484;11.112;2023-03-04T14:42:58;6.20;99.90
2721;DHT22;1368;49.484;11.112;2023-03-04T14:45:26;6.20;99.90
2721;DHT22;1368;49.484;11.112;2023-03-04T14:47:53;6.00;99.90
2721;DHT22;1368;49.484;11.112;2023-03-04T14:50:21;5.80;99.90
2721;DHT22;1368;49.484;11.112;2023-03-04T14:52:49;5.90;99.90
2721;DHT22;1368;49.484;11.112;2023-03-04T14:57:44;5.90;99.90
2721;DHT22;1368;49.484;11.112;2023-03-04T15:00:15;6.10;99.90
2721;DHT22;1368;49.484;11.112;2023-03-04T15:02:41;6.00;99.90
2721;DHT22;1368;49.484;11.112;2023-03-04T15:05:10;5.50;99.90
2721;DHT22;1368;49.484;11.112;2023-03-04T15:07:40;5.40;99.90
2721;DHT22;1368;49.484;11.112;2023-03-04T15:10:10;5.40;99.90
2721;DHT22;1368;49.484;11.112;2023-03-04T15:12:37;5.60;99.90
2721;DHT22;1368;49.484;11.112;2023-03-04T15:18:00;5.20;99.90
2721;DHT22;1368;49.484;11.112;2023-03-04T15:20:28;5.00;99.90
2721;DHT22;1368;49.484;11.112;2023-03-04T15:25:20;4.80;99.90
2721;DHT22;1368;49.484;11.112;2023-03-04T15:27:46;5.00;99.90
2721;DHT22;1368;49.484;11.112;2023-03-04T15:30:16;4.90;99.90
2721;DHT22;1368;49.484;11.112;2023-03-04T15:32:42;4.80;99.90
2721;DHT22;1368;49.484;11.112;2023-03-04T15:35:11;4.90;99.90
2721;DHT22;1368;49.484;11.112;2023-03-04T15:37:38;5.00;99.90
2721;DHT22;1368;49.484;11.112;2023-03-04T15:40:11;5.00;99.90
2721;DHT22;1368;49.484;11.112;2023-03-04T15:42:38;5.10;99.90
2721;DHT22;1368;49.484;11.112;2023-03-04T15:45:19;4.90;99.90
2721;DHT22;1368;49.484;11.112;2023-03-04T15:47:44;5.10;99.90
2721;DHT22;1368;49.484;11.112;2023-03-04T15:50:10;5.00;99.90
2721;DHT22;1368;49.484;11.112;2023-03-04T15:52:36;4.90;99.90
2721;DHT22;1368;49.484;11.112;2023-03-04T15:55:09;5.00;99.90
2721;DHT22;1368;49.484;11.112;2023-03-04T15:57:34;5.00;99.90
2721;DHT22;1368;49.484;11.112;2023-03-04T16:00:00;4.90;99.90
2721;DHT22;1368;49.484;11.112;2023-03-04T16:02:26;4.90;99.90
2721;DHT22;1368;49.484;11.112;2023-03-04T16:04:55;5.10;99.90
2721;DHT22;1368;49.484;11.112;2023-03-04T16:07:23;5.20;99.90
2721;DHT22;1368;49.484;11.112;2023-03-04T16:09:58;5.20;99.90
2721;DHT22;1368;49.484;11.112;2023-03-04T16:12:27;5.10;99.90
2721;DHT22;1368;49.484;11.112;2023-03-04T16:14:52;5.00;99.90
2721;DHT22;1368;49.484;11.112;2023-03-04T16:17:18;4.90;99.90
2721;DHT22;1368;49.484;11.112;2023-03-04T16:19:44;4.80;99.90
2721;DHT22;1368;49.484;11.112;2023-03-04T16:22:20;4.90;99.90
2721;DHT22;1368;49.484;11.112;2023-03-04T16:24:49;5.00;99.90
2721;DHT22;1368;49.484;11.112;2023-03-04T16:27:16;4.90;99.90
2721;DHT22;1368;49.484;11.112;2023-03-04T16:29:42;5.00;99.90
2721;DHT22;1368;49.484;11.112;2023-03-04T16:32:09;4.90;99.90
2721;DHT22;1368;49.484;11.112;2023-03-04T16:34:35;4.90;99.90
2721;DHT22;1368;49.484;11.112;2023-03-04T16:37:05;5.00;99.90
2721;DHT22;1368;49.484;11.112;2023-03-04T16:39:32;4.80;99.90
2721;DHT22;1368;49.484;11.112;2023-03-04T16:41:58;4.60;99.90
2721;DHT22;1368;49.484;11.112;2023-03-04T16:44:23;4.80;99.90
2721;DHT22;1368;49.484;11.112;2023-03-04T16:46:49;4.90;99.90
2721;DHT22;1368;49.484;11.112;2023-03-04T16:49:15;5.10;99.90
2721;DHT22;1368;49.484;11.112;2023-03-04T16:51:47;5.40;99.90
2721;DHT22;1368;49.484;11.112;2023-03-04T16:54:23;5.70;99.90
2721;DHT22;1368;49.484;11.112;2023-03-04T16:56:52;5.60;99.90
2721;DHT22;1368;49.484;11.112;2023-03-04T16:59:17;5.20;99.90
2721;DHT22;1368;49.484;11.112;2023-03-04T17:01:43;5.20;99.90
2721;DHT22;1368;49.484;11.112;2023-03-04T17:04:09;5.40;99.90
2721;DHT22;1368;49.484;11.112;2023-03-04T17:06:34;5.40;99.90
2721;DHT22;1368;49.484;11.112;2023-03-04T17:09:03;5.40;99.90
2721;DHT22;1368;49.484;11.112;2023-03-04T17:11:29;5.30;99.90
2721;DHT22;1368;49.484;11.112;2023-03-04T17:13:55;5.30;99.90
2721;DHT22;1368;49.484;11.112;2023-03-04T17:16:21;5.60;99.90
2721;DHT22;1368;49.484;11.112;2023-03-04T17:18:47;6.00;99.90
2721;DHT22;1368;49.484;11.112;2023-03-04T17:21:16;5.40;99.90
2721;DHT22;1368;49.484;11.112;2023-03-04T17:23:41;5.50;99.90
2721;DHT22;1368;49.484;11.112;2023-03-04T17:26:07;5.30;99.90
2721;DHT22;1368;49.484;11.112;2023-03-04T17:28:33;5.30;99.90
2721;DHT22;1368;49.484;11.112;2023-03-04T17:31:00;5.20;99.90
2721;DHT22;1368;49.484;11.112;2023-03-04T17:33:26;5.00;99.90
2721;DHT22;1368;49.484;11.112;2023-03-04T17:35:52;4.80;99.90
2721;DHT22;1368;49.484;11.112;2023-03-04T17:38:17;4.90;99.90
2721;DHT22;1368;49.484;11.112;2023-03-04T17:40:43;4.90;99.90
2721;DHT22;1368;49.484;11.112;2023-03-04T17:43:09;5.10;99.90
2721;DHT22;1368;49.484;11.112;2023-03-04T17:45:38;5.30;99.90
2721;DHT22;1368;49.484;11.112;2023-03-04T17:48:05;5.40;99.90
2721;DHT22;1368;49.484;11.112;2023-03-04T17:50:32;5.30;99.90
2721;DHT22;1368;49.484;11.112;2023-03-04T17:52:57;5.10;99.90
2721;DHT22;1368;49.484;11.112;2023-03-04T17:55:23;5.30;99.90
2721;DHT22;1368;49.484;11.112;2023-03-04T17:57:49;5.20;99.90
2721;DHT22;1368;49.484;11.112;2023-03-04T18:00:18;5.20;99.90
2721;DHT22;1368;49.484;11.112;2023-03-04T18:02:44;5.20;99.90
2721;DHT22;1368;49.484;11.112;2023-03-04T18:05:09;5.20;99.90
2721;DHT22;1368;49.484;11.112;2023-03-04T18:07:35;5.00;99.90